Time;durP1;ratioP1;P1;durP2;ratioP2;P2;SDS_P1;SDS_P2;PMS_P1;PMS_P2;Temp;Humidity;BMP_temperature;BMP_pressure;BME280_temperature;BME280_humidity;BME280_pressure;Samples;Min_cycle;Max_cycle;Signal;HPM_P1;HPM_P2
2022/02/06 00:02:05;;;;;;;12.98;7.55;;;;;;;2.91;70.12;95399.03;5110844;27;19941;-66
2022/02/06 00:04:31;;;;;;;11.90;7.43;;;;;;;2.95;70.43;95398.00;5130690;27;20035;-66
2022/02/06 00:06:56;;;;;;;14.07;8.20;;;;;;;2.98;70.35;95400.44;5131081;27;20226;-66
2022/02/06 00:09:22;;;;;;;11.80;7.60;;;;;;;3.00;70.21;95401.19;5131135;27;20031;-66
2022/02/06 00:11:47;;;;;;;12.90;8.38;;;;;;;3.00;70.18;95400.34;5131036;27;20416;-66
2022/02/06 00:14:13;;;;;;;12.10;7.35;;;;;;;2.98;70.19;95408.16;5129959;27;20027;-66
2022/02/06 00:16:38;;;;;;;11.10;7.60;;;;;;;2.97;69.68;95414.16;5131957;27;20042;-66
2022/02/06 00:19:03;;;;;;;12.15;8.20;;;;;;;2.96;69.68;95407.38;5113698;27;20042;-66
2022/02/06 00:21:34;;;;;;;13.60;9.40;;;;;;;2.91;70.18;95409.31;5132218;27;20030;-66
2022/02/06 00:24:01;;;;;;;49.53;24.97;;;;;;;2.91;70.30;95409.31;5130253;27;20050;-66
2022/02/06 00:26:37;;;;;;;22.88;13.38;;;;;;;2.94;70.23;95413.47;5130054;27;20062;-66
2022/02/06 00:31:50;;;;;;;19.73;10.40;;;;;;;3.08;69.77;95419.66;5131968;27;20031;-66
2022/02/06 00:39:43;;;;;;;16.85;10.25;;;;;;;3.10;68.89;95423.00;5096098;28;20046;-66
2022/02/06 00:42:10;;;;;;;18.73;11.15;;;;;;;3.14;69.01;95421.94;5110106;28;20028;-66
2022/02/06 00:44:35;;;;;;;15.48;10.90;;;;;;;3.23;68.46;95422.44;5109945;28;20031;-67
2022/02/06 00:47:03;;;;;;;16.55;11.32;;;;;;;3.25;67.85;95424.06;5117659;28;20049;-66
2022/02/06 00:49:30;;;;;;;16.60;11.32;;;;;;;3.27;67.73;95419.69;5110190;28;20036;-66
2022/02/06 00:52:04;;;;;;;19.27;13.18;;;;;;;3.27;68.06;95424.00;5109956;28;20023;-66
2022/02/06 00:54:29;;;;;;;27.15;14.98;;;;;;;3.34;67.76;95422.81;5118797;28;20053;-66
2022/02/06 00:56:55;;;;;;;23.05;14.10;;;;;;;3.36;67.47;95428.72;5131700;27;20487;-66
2022/02/06 00:59:20;;;;;;;17.45;11.73;;;;;;;3.40;67.47;95419.13;5131999;27;20031;-66
2022/02/06 01:01:46;;;;;;;17.77;11.40;;;;;;;3.37;67.41;95417.53;5133632;27;20027;-66
2022/02/06 01:04:12;;;;;;;16.52;11.25;;;;;;;3.36;67.48;95415.88;5134685;27;20047;-66
2022/02/06 01:06:37;;;;;;;15.52;10.73;;;;;;;3.39;67.06;95414.91;5117551;27;20051;-66
2022/02/06 01:09:03;;;;;;;16.95;11.40;;;;;;;3.38;66.80;95413.25;5111051;28;20043;-66
2022/02/06 01:11:30;;;;;;;18.00;11.18;;;;;;;3.26;67.21;95406.91;5097805;28;20023;-66
2022/02/06 01:16:41;;;;;;;18.33;10.90;;;;;;;3.28;66.93;95398.22;5114317;28;20050;-66
2022/02/06 01:19:21;;;;;;;16.20;10.70;;;;;;;3.25;67.02;95402.69;5115242;28;20028;-66
2022/02/06 01:24:24;;;;;;;15.45;10.05;;;;;;;3.21;66.79;95399.44;5113769;28;20066;-66
2022/02/06 01:34:14;;;;;;;13.82;9.82;;;;;;;2.99;67.40;95402.09;5124269;27;20038;-66
2022/02/06 01:39:42;;;;;;;14.40;10.23;;;;;;;2.88;67.55;95399.16;5112772;28;20401;-66
2022/02/06 01:42:09;;;;;;;15.10;10.38;;;;;;;2.85;67.41;95399.31;5111142;27;20047;-66
2022/02/06 02:03:30;;;;;;;14.50;9.10;;;;;;;2.65;67.28;95392.47;5092362;28;20113;-66
2022/02/06 02:14:29;;;;;;;13.75;9.15;;;;;;;2.69;67.78;95410.22;5114769;27;20035;-66
2022/02/06 02:17:16;;;;;;;15.23;9.35;;;;;;;2.66;67.78;95399.25;5134134;27;20126;-66
2022/02/06 02:22:46;;;;;;;11.48;8.52;;;;;;;2.50;68.11;95386.22;5117395;27;20042;-66
2022/02/06 02:46:28;;;;;;;19.50;9.88;;;;;;;2.45;67.15;95417.22;5096014;28;20428;-66
2022/02/06 02:48:55;;;;;;;13.73;9.20;;;;;;;2.39;66.89;95406.38;5113192;28;20038;-66
2022/02/06 02:51:23;;;;;;;17.15;11.70;;;;;;;2.34;67.62;95410.84;5100636;27;20027;-66
2022/02/06 02:53:56;;;;;;;27.80;16.42;;;;;;;2.29;67.24;95405.94;5132585;27;20472;-66
2022/02/06 03:01:44;;;;;;;16.48;9.63;;;;;;;2.16;67.13;95415.00;5130982;27;20034;-66
2022/02/06 03:04:09;;;;;;;13.23;8.80;;;;;;;2.12;67.11;95406.59;5075733;28;20400;-66
2022/02/06 03:06:35;;;;;;;13.88;9.00;;;;;;;2.07;68.15;95412.81;5074534;28;20023;-66
2022/02/06 03:09:01;;;;;;;13.82;8.82;;;;;;;1.95;66.56;95401.31;5092697;28;20430;-66
2022/02/06 03:11:27;;;;;;;13.13;8.50;;;;;;;2.02;65.74;95410.44;5112015;27;20037;-66
2022/02/06 03:14:02;;;;;;;9.63;7.10;;;;;;;1.96;66.46;95410.69;5132123;27;20478;-66
2022/02/06 03:16:31;;;;;;;12.02;8.20;;;;;;;1.82;67.34;95418.06;5132107;27;20084;-66
2022/02/06 03:21:28;;;;;;;12.07;7.57;;;;;;;1.70;67.60;95419.34;5132249;27;20081;-66
2022/02/06 03:23:56;;;;;;;12.95;7.65;;;;;;;1.68;67.11;95419.44;5131484;27;20051;-66
2022/02/06 03:26:23;;;;;;;11.45;7.22;;;;;;;1.58;66.66;95419.84;5115194;27;20023;-66
2022/02/06 03:28:48;;;;;;;11.85;7.10;;;;;;;1.51;66.10;95422.63;5114823;27;20076;-66
2022/02/06 03:31:14;;;;;;;11.07;7.30;;;;;;;1.31;67.59;95413.16;5112690;27;20515;-66
2022/02/06 03:33:39;;;;;;;11.55;8.30;;;;;;;1.24;68.43;95421.09;5131725;27;20509;-66
2022/02/06 03:36:05;;;;;;;12.35;7.93;;;;;;;1.21;68.76;95419.50;5114467;27;20035;-66
2022/02/06 03:38:30;;;;;;;11.38;7.63;;;;;;;1.19;68.91;95423.00;5132999;27;20087;-66
2022/02/06 03:41:03;;;;;;;11.63;8.15;;;;;;;1.09;68.70;95405.41;5112377;28;20024;-66
2022/02/06 03:43:51;;;;;;;11.98;7.78;;;;;;;1.18;67.91;95413.66;5111136;28;20035;-66
2022/02/06 03:46:30;;;;;;;11.20;7.60;;;;;;;1.21;66.35;95409.25;5111216;28;20089;-66
2022/02/06 03:49:21;;;;;;;14.35;8.38;;;;;;;1.17;67.71;95419.66;5111922;28;20131;-67
2022/02/06 03:51:44;;;;;;;17.02;10.38;;;;;;;1.15;68.49;95424.84;5110710;27;20042;-66
2022/02/06 03:54:10;;;;;;;12.65;7.75;;;;;;;1.07;68.47;95416.59;5112268;28;20417;-66
2022/02/06 03:56:36;;;;;;;13.18;7.60;;;;;;;0.99;68.75;95418.59;5110806;28;20034;-66
2022/02/06 03:59:03;;;;;;;12.55;7.50;;;;;;;0.86;69.55;95419.03;5090328;28;20028;-66
2022/02/06 04:01:28;;;;;;;13.10;6.47;;;;;;;0.87;69.08;95415.59;5107264;28;20025;-67
2022/02/06 04:03:54;;;;;;;10.25;6.82;;;;;;;0.86;68.35;95416.47;5090104;28;20043;-66
2022/02/06 04:06:19;;;;;;;9.77;6.32;;;;;;;0.75;68.14;95420.28;5090305;28;20024;-66
2022/02/06 04:08:45;;;;;;;9.25;6.60;;;;;;;0.71;68.33;95423.84;5091606;28;20044;-66
2022/02/06 04:11:15;;;;;;;9.23;6.07;;;;;;;0.72;68.58;95430.63;5130075;27;20436;-67
2022/02/06 04:14:07;;;;;;;11.52;6.03;;;;;;;0.58;68.96;95424.25;5131241;27;20031;-66
2022/02/06 04:16:42;;;;;;;7.78;5.45;;;;;;;0.58;68.96;95423.41;5131207;27;20035;-66
2022/02/06 04:19:23;;;;;;;9.48;6.28;;;;;;;0.63;67.61;95424.09;5113329;27;20460;-66
2022/02/06 04:21:48;;;;;;;11.27;7.40;;;;;;;0.58;67.30;95420.88;5132098;27;20023;-66
2022/02/06 04:24:14;;;;;;;12.48;7.75;;;;;;;0.63;67.08;95424.09;5113607;27;20057;-66
2022/02/06 04:26:40;;;;;;;12.40;7.65;;;;;;;0.65;67.69;95419.78;5129049;27;20019;-66
2022/02/06 04:29:05;;;;;;;12.77;7.47;;;;;;;0.68;66.87;95417.13;5130831;27;20038;-66
2022/02/06 04:31:31;;;;;;;11.98;7.50;;;;;;;0.76;66.83;95421.97;5130912;27;20106;-66
2022/02/06 04:33:57;;;;;;;11.38;7.82;;;;;;;0.79;66.66;95417.56;5130632;27;20031;-66
2022/02/06 04:36:27;;;;;;;19.83;10.88;;;;;;;0.75;66.85;95436.47;5128107;27;20034;-66
2022/02/06 04:44:47;;;;;;;15.57;9.00;;;;;;;0.60;66.36;95437.00;5132242;27;20038;-66
2022/02/06 04:47:30;;;;;;;23.85;12.65;;;;;;;0.50;67.38;95427.97;5091029;28;20054;-66
2022/02/06 04:55:34;;;;;;;25.08;15.07;;;;;;;0.44;67.76;95437.50;5093274;28;20520;-67
2022/02/06 05:16:42;;;;;;;9.27;6.00;;;;;;;-0.26;67.95;95458.47;5128251;28;20031;-66
2022/02/06 05:34:12;;;;;;;11.38;5.80;;;;;;;-0.32;67.55;95456.09;5113721;28;20473;-66
2022/02/06 05:36:38;;;;;;;11.38;6.88;;;;;;;-0.23;68.33;95460.09;5122955;27;20069;-65
2022/02/06 05:39:03;;;;;;;12.32;7.18;;;;;;;-0.16;67.74;95464.16;5089126;28;20048;-66
2022/02/06 05:41:29;;;;;;;11.40;5.95;;;;;;;-0.09;67.82;95467.34;5090460;28;20032;-66
2022/02/06 05:43:55;;;;;;;11.77;6.80;;;;;;;-0.05;66.60;95463.81;5105918;28;20169;-65
2022/02/06 05:46:20;;;;;;;9.75;5.32;;;;;;;-0.05;65.89;95472.31;5093930;28;20024;-65
2022/02/06 05:48:45;;;;;;;9.60;5.75;;;;;;;-0.24;66.56;95474.59;5114567;28;20036;-66
2022/02/06 05:51:13;;;;;;;9.02;5.93;;;;;;;-0.27;66.87;95471.31;5113252;28;20020;-66
2022/02/06 05:53:38;;;;;;;18.60;8.48;;;;;;;-0.25;67.15;95480.59;5096324;27;20089;-65
2022/02/06 05:56:04;;;;;;;11.30;6.40;;;;;;;-0.24;67.90;95482.25;5078989;28;20027;-65
2022/02/06 05:58:29;;;;;;;10.57;6.20;;;;;;;-0.26;67.52;95476.34;5110588;28;20569;-66
2022/02/06 06:00:54;;;;;;;8.20;5.70;;;;;;;-0.25;66.26;95474.66;5097182;27;20042;-65
2022/02/06 06:03:20;;;;;;;9.07;5.43;;;;;;;-0.18;66.30;95482.94;5125132;27;20024;-66
2022/02/06 06:05:45;;;;;;;6.63;5.00;;;;;;;-0.20;67.14;95485.53;5108412;27;20463;-65
2022/02/06 06:08:11;;;;;;;7.60;5.15;;;;;;;-0.29;67.22;95480.72;5109427;27;21151;-66
2022/02/06 06:10:37;;;;;;;9.82;6.93;;;;;;;-0.33;67.17;95486.81;5109283;28;20024;-66
2022/02/06 06:13:02;;;;;;;20.95;11.38;;;;;;;-0.48;67.43;95490.63;5113572;28;20043;-65
2022/02/06 06:15:29;;;;;;;39.45;19.35;;;;;;;-0.46;67.09;95492.25;5115528;27;20023;-66
2022/02/06 06:17:56;;;;;;;45.95;29.52;;;;;;;-0.44;67.13;95486.28;5099901;27;20043;-67
2022/02/06 06:20:23;;;;;;;18.58;11.52;;;;;;;-0.47;67.95;95493.16;5126727;27;20106;-65
2022/02/06 06:22:52;;;;;;;9.82;6.25;;;;;;;-0.52;67.45;95489.06;5115730;27;20059;-64
2022/02/06 06:25:18;;;;;;;7.80;5.13;;;;;;;-0.60;66.77;95494.38;5112025;28;20097;-66
2022/02/06 06:27:43;;;;;;;8.68;5.72;;;;;;;-0.56;67.90;95508.69;5094803;27;20015;-65
2022/02/06 06:30:09;;;;;;;9.20;6.00;;;;;;;-0.58;68.42;95502.81;5133221;27;20031;-66
2022/02/06 06:32:34;;;;;;;37.83;18.75;;;;;;;-0.63;68.30;95507.22;5132223;27;20042;-67
2022/02/06 06:35:03;;;;;;;28.77;14.20;;;;;;;-0.58;67.28;95515.59;5119088;27;20027;-65
2022/02/06 06:37:28;;;;;;;100.78;41.92;;;;;;;-0.56;67.53;95518.91;5116718;27;20028;-65
2022/02/06 06:39:53;;;;;;;80.70;35.95;;;;;;;-0.52;67.66;95506.91;5099525;28;20042;-65
2022/02/06 06:42:19;;;;;;;30.27;15.27;;;;;;;-0.55;68.13;95512.94;5115014;27;20022;-66
2022/02/06 06:44:44;;;;;;;22.85;12.68;;;;;;;-0.56;68.17;95512.97;5117006;27;20039;-66
2022/02/06 06:47:10;;;;;;;16.58;10.35;;;;;;;-0.57;68.79;95512.16;5111608;27;20478;-66
2022/02/06 06:49:35;;;;;;;12.35;8.00;;;;;;;-0.53;68.48;95510.34;5093002;28;20032;-66
2022/02/06 06:52:01;;;;;;;11.40;6.53;;;;;;;-0.57;68.91;95512.16;5113777;27;20413;-66
2022/02/06 06:54:35;;;;;;;6.93;4.75;;;;;;;-0.51;68.24;95501.75;5118007;27;20034;-65
2022/02/06 06:57:07;;;;;;;8.95;5.10;;;;;;;-0.48;67.84;95514.44;5112321;27;20031;-65
2022/02/06 07:04:42;;;;;;;33.53;18.13;;;;;;;-0.58;67.25;95519.88;5114855;27;20058;-65
2022/02/06 07:07:07;;;;;;;42.30;19.80;;;;;;;-0.56;67.40;95534.22;5109725;28;20520;-66
2022/02/06 07:09:32;;;;;;;28.75;14.50;;;;;;;-0.60;67.72;95526.72;5113087;27;20035;-65
2022/02/06 07:11:58;;;;;;;37.45;17.48;;;;;;;-0.55;68.49;95525.72;5100856;28;20035;-65
2022/02/06 07:14:25;;;;;;;28.33;14.02;;;;;;;-0.46;68.76;95527.16;5116141;27;20034;-65
2022/02/06 07:16:51;;;;;;;24.92;11.93;;;;;;;-0.23;67.97;95532.44;5119437;27;20039;-65
2022/02/06 07:19:16;;;;;;;18.30;9.18;;;;;;;-0.11;68.53;95535.50;5107821;27;20080;-67
2022/02/06 07:21:41;;;;;;;13.32;8.00;;;;;;;0.05;68.30;95531.59;5114492;27;20024;-65
2022/02/06 07:24:07;;;;;;;17.40;9.65;;;;;;;0.18;67.66;95525.25;5111864;27;20464;-65
2022/02/06 07:26:33;;;;;;;20.50;12.35;;;;;;;0.42;67.19;95521.09;5103181;27;20034;-65
2022/02/06 07:29:00;;;;;;;37.25;20.00;;;;;;;0.66;66.58;95527.13;5112516;27;20038;-65
2022/02/06 07:31:26;;;;;;;26.75;14.52;;;;;;;0.83;65.78;95528.28;5132835;27;20028;-64
2022/02/06 07:33:52;;;;;;;23.23;13.13;;;;;;;1.25;65.14;95520.84;5122942;27;20200;-66
2022/02/06 07:36:18;;;;;;;27.70;15.30;;;;;;;1.44;64.95;95520.22;5092291;28;20031;-66
2022/02/06 07:38:44;;;;;;;29.80;15.98;;;;;;;1.52;64.28;95523.34;5119972;27;20062;-65
2022/02/06 07:41:10;;;;;;;17.63;10.25;;;;;;;1.77;64.04;95526.69;5110106;28;20055;-67
2022/02/06 07:43:36;;;;;;;16.75;10.13;;;;;;;2.06;63.17;95522.16;5110349;28;20027;-67
2022/02/06 07:46:07;;;;;;;19.67;9.85;;;;;;;2.53;61.94;95527.19;5109870;28;20020;-66
2022/02/06 07:48:32;;;;;;;14.75;9.30;;;;;;;3.11;60.26;95529.91;5093358;28;20469;-65
2022/02/06 07:50:58;;;;;;;17.15;10.40;;;;;;;3.56;58.87;95520.31;5111742;28;20028;-66
2022/02/06 07:53:24;;;;;;;20.67;13.63;;;;;;;4.08;56.90;95525.69;5100414;27;20035;-66
2022/02/06 07:55:49;;;;;;;25.77;15.63;;;;;;;4.38;56.11;95530.31;5093562;27;20024;-66
2022/02/06 07:58:14;;;;;;;25.05;16.55;;;;;;;4.82;54.06;95527.31;5095133;28;20097;-66
2022/02/06 08:00:40;;;;;;;19.88;12.68;;;;;;;5.35;51.57;95531.56;5124951;27;20031;-66
2022/02/06 08:03:06;;;;;;;17.17;12.18;;;;;;;5.87;49.79;95525.44;5124607;27;20537;-66
2022/02/06 08:05:31;;;;;;;19.35;12.90;;;;;;;6.25;49.15;95524.25;5110053;28;20020;-65
2022/02/06 08:07:58;;;;;;;15.52;11.88;;;;;;;6.55;47.24;95513.16;5129165;27;20034;-66
2022/02/06 08:10:25;;;;;;;19.45;12.52;;;;;;;6.81;46.86;95526.34;5127569;27;20027;-66
2022/02/06 08:13:06;;;;;;;23.70;12.80;;;;;;;6.97;46.54;95516.81;5111947;27;20016;-66
2022/02/06 08:15:31;;;;;;;16.92;11.55;;;;;;;6.74;45.12;95523.25;5110727;27;20027;-66
2022/02/06 08:17:57;;;;;;;16.67;11.20;;;;;;;6.64;45.91;95515.22;5128200;27;20096;-66
2022/02/06 08:20:23;;;;;;;20.73;11.18;;;;;;;6.55;46.15;95518.31;5115389;27;20032;-66
2022/02/06 08:22:48;;;;;;;14.95;11.07;;;;;;;6.50;46.56;95510.00;5096289;28;20028;-66
2022/02/06 08:25:15;;;;;;;16.52;11.57;;;;;;;6.39;47.12;95517.50;5111083;27;20074;-66
2022/02/06 08:27:41;;;;;;;14.88;11.00;;;;;;;6.18;46.18;95512.56;5095534;28;20028;-66
2022/02/06 08:30:07;;;;;;;15.23;11.43;;;;;;;6.19;45.89;95509.09;5111279;28;20024;-66
2022/02/06 08:32:33;;;;;;;16.90;11.05;;;;;;;6.11;45.86;95519.00;5087686;28;20020;-65
2022/02/06 08:34:58;;;;;;;14.02;9.25;;;;;;;6.00;44.03;95498.94;5092756;28;20382;-65
2022/02/06 08:37:24;;;;;;;15.27;10.18;;;;;;;6.11;45.51;95511.25;5112704;27;20066;-65
2022/02/06 08:39:49;;;;;;;15.40;10.88;;;;;;;5.98;45.01;95505.09;5088889;27;20042;-66
2022/02/06 08:42:15;;;;;;;18.33;12.13;;;;;;;5.87;47.07;95502.22;5094849;28;20115;-66
2022/02/06 08:44:42;;;;;;;19.63;12.35;;;;;;;5.96;46.02;95512.06;5093002;28;20492;-66
2022/02/06 08:47:09;;;;;;;23.25;16.02;;;;;;;5.90;46.33;95504.63;5109402;28;20524;-66
2022/02/06 08:49:35;;;;;;;31.23;18.02;;;;;;;5.93;47.04;95500.19;5099061;28;20027;-66
2022/02/06 08:52:00;;;;;;;19.85;13.15;;;;;;;5.97;44.94;95490.53;5114969;27;20020;-66
2022/02/06 08:54:29;;;;;;;22.50;12.90;;;;;;;5.96;45.63;95500.03;5109744;28;20506;-66
2022/02/06 08:57:01;;;;;;;24.70;14.15;;;;;;;6.02;45.79;95501.47;5102086;28;20024;-66
2022/02/06 08:59:26;;;;;;;;;;;;;;;6.01;45.78;95503.19;5110429;28;20119;-66
2022/02/06 09:01:52;;;;;;;17.55;10.82;;;;;;;5.92;44.41;95508.81;5109132;28;20006;-65
2022/02/06 09:04:18;;;;;;;14.98;10.77;;;;;;;5.70;45.12;95506.53;5116416;28;20111;-66
2022/02/06 09:06:43;;;;;;;46.03;20.92;;;;;;;5.69;45.60;95509.19;5118295;28;20036;-66
2022/02/06 09:09:10;;;;;;;29.60;16.27;;;;;;;5.66;46.31;95502.47;5117970;28;20404;-66
2022/02/06 09:11:36;;;;;;;16.45;11.30;;;;;;;5.66;46.09;95512.78;5126289;28;20070;-66
2022/02/06 09:14:01;;;;;;;16.30;11.45;;;;;;;5.63;46.12;95520.66;5121575;28;20446;-66
2022/02/06 09:16:26;;;;;;;18.17;11.23;;;;;;;5.66;46.09;95517.09;5116139;28;20541;-66
2022/02/06 09:18:53;;;;;;;14.45;9.88;;;;;;;5.64;46.20;95514.59;5121079;28;20039;-66
2022/02/06 09:21:21;;;;;;;15.10;10.20;;;;;;;5.64;44.98;95519.75;5120891;27;20496;-66
2022/02/06 09:23:47;;;;;;;15.60;11.18;;;;;;;5.67;45.86;95518.75;5114172;27;20569;-66
2022/02/06 09:26:12;;;;;;;18.83;11.88;;;;;;;5.77;46.62;95518.19;5113285;28;20032;-68
2022/02/06 09:28:38;;;;;;;24.50;14.35;;;;;;;5.76;46.27;95510.53;5122607;27;20038;-67
2022/02/06 09:31:03;;;;;;;16.40;11.45;;;;;;;5.74;45.75;95504.63;5119987;27;20027;-66
2022/02/06 09:35:54;;;;;;;15.90;11.45;;;;;;;5.80;46.55;95501.72;5113680;28;20036;-66
2022/02/06 09:38:19;;;;;;;21.90;11.05;;;;;;;5.75;45.55;95501.13;5113266;27;20039;-66
2022/02/06 09:40:45;;;;;;;19.42;12.05;;;;;;;5.77;45.93;95500.16;5123703;27;20027;-66
2022/02/06 09:43:11;;;;;;;17.40;11.60;;;;;;;5.69;45.78;95491.16;5101388;27;20039;-66
2022/02/06 09:45:38;;;;;;;15.73;11.00;;;;;;;5.68;45.13;95499.78;5100003;28;20020;-66
2022/02/06 09:48:04;;;;;;;14.88;11.02;;;;;;;5.76;45.50;95497.63;5096165;27;20486;-66
2022/02/06 09:50:29;;;;;;;23.85;14.27;;;;;;;5.81;46.36;95490.50;5113151;28;20102;-67
2022/02/06 09:52:55;;;;;;;23.75;15.13;;;;;;;5.89;46.39;95492.66;5112483;28;20454;-65
2022/02/06 09:55:22;;;;;;;19.48;13.00;;;;;;;6.01;46.25;95487.69;5116761;27;20497;-67
2022/02/06 09:57:53;;;;;;;16.15;10.85;;;;;;;6.04;45.15;95473.81;5114309;27;20023;-66
2022/02/06 10:00:20;;;;;;;14.27;10.85;;;;;;;5.90;45.36;95468.53;5122751;27;20038;-66
2022/02/06 10:02:47;;;;;;;15.48;10.43;;;;;;;5.86;46.13;95464.47;5113350;27;20039;-66
2022/02/06 10:05:15;;;;;;;16.05;11.02;;;;;;;5.86;45.97;95462.72;5092195;28;20028;-66
2022/02/06 10:07:43;;;;;;;15.80;11.07;;;;;;;5.94;46.20;95467.50;5101925;28;20032;-66
2022/02/06 10:10:10;;;;;;;14.88;11.13;;;;;;;6.12;46.23;95450.19;5108061;27;20071;-66
2022/02/06 10:12:40;;;;;;;15.13;10.52;;;;;;;6.14;44.40;95461.25;5108193;27;20111;-66
2022/02/06 10:15:09;;;;;;;15.50;10.60;;;;;;;6.28;44.53;95447.59;5075466;28;20489;-66
2022/02/06 10:17:36;;;;;;;20.95;13.38;;;;;;;6.26;44.77;95439.91;5110406;27;20048;-67
2022/02/06 10:20:01;;;;;;;21.83;14.55;;;;;;;6.31;45.08;95439.69;5127257;27;20507;-66
2022/02/06 10:22:37;;;;;;;17.02;12.05;;;;;;;6.33;44.92;95430.09;5127411;27;20032;-67
2022/02/06 10:25:05;;;;;;;16.77;11.52;;;;;;;6.41;44.55;95431.34;5115370;27;20054;-66
2022/02/06 10:30:48;;;;;;;17.75;11.98;;;;;;;6.40;44.56;95411.59;5123836;27;20412;-66
2022/02/06 10:33:24;;;;;;;15.07;11.52;;;;;;;6.46;44.43;95421.59;5092579;28;20053;-66
2022/02/06 10:35:54;;;;;;;17.38;12.82;;;;;;;6.41;44.04;95397.78;5091628;28;20130;-66
2022/02/06 10:38:20;;;;;;;18.48;11.35;;;;;;;6.50;43.79;95401.59;5099105;27;20488;-66
2022/02/06 10:41:01;;;;;;;14.93;10.73;;;;;;;6.58;43.76;95401.97;5117151;27;20032;-67
2022/02/06 10:43:26;;;;;;;13.80;9.93;;;;;;;6.55;42.82;95394.41;5101223;27;20042;-66
2022/02/06 10:45:58;;;;;;;13.10;9.32;;;;;;;6.61;42.79;95394.03;5102688;28;20044;-66
2022/02/06 10:48:23;;;;;;;15.93;10.20;;;;;;;6.74;42.50;95383.81;5102261;28;20505;-66
2022/02/06 10:50:49;;;;;;;14.32;9.82;;;;;;;6.70;43.02;95383.19;5093539;28;20025;-66
2022/02/06 10:53:15;;;;;;;18.52;13.32;;;;;;;6.67;43.04;95380.78;5100513;27;20031;-66
2022/02/06 10:55:58;;;;;;;15.52;10.82;;;;;;;6.63;43.00;95371.56;5100667;28;20036;-66
2022/02/06 10:58:42;;;;;;;14.50;9.73;;;;;;;6.69;43.66;95380.69;5116779;27;20046;-66
2022/02/06 11:01:08;;;;;;;19.40;9.15;;;;;;;6.64;42.28;95364.66;5093704;27;20106;-66
2022/02/06 11:03:36;;;;;;;17.45;10.00;;;;;;;6.63;41.75;95366.41;5112703;27;20027;-66
2022/02/06 11:06:10;;;;;;;13.45;9.02;;;;;;;6.64;43.07;95372.38;5099085;27;20536;-66
2022/02/06 11:08:37;;;;;;;12.60;8.63;;;;;;;6.66;42.52;95360.22;5121210;27;20031;-67
2022/02/06 11:11:04;;;;;;;13.57;9.65;;;;;;;6.74;43.28;95357.16;5121347;27;20032;-67
2022/02/06 11:13:31;;;;;;;13.73;10.57;;;;;;;6.71;43.30;95353.00;5119612;27;20024;-66
2022/02/06 11:16:01;;;;;;;17.92;10.55;;;;;;;6.75;43.40;95354.50;5077919;28;20522;-66
2022/02/06 11:18:38;;;;;;;13.18;8.73;;;;;;;6.83;41.98;95346.31;5113114;27;20484;-66
2022/02/06 11:21:10;;;;;;;11.88;8.57;;;;;;;6.95;41.46;95350.75;5115851;27;20019;-66
2022/02/06 11:23:38;;;;;;;12.50;8.38;;;;;;;7.04;41.99;95344.19;5097483;28;20048;-66
2022/02/06 11:26:26;;;;;;;12.00;8.77;;;;;;;6.99;41.12;95339.28;5111022;28;20114;-66
2022/02/06 11:28:52;;;;;;;13.30;8.88;;;;;;;7.01;42.03;95332.28;5113344;27;20500;-66
2022/02/06 11:31:18;;;;;;;12.88;8.27;;;;;;;6.86;41.75;95322.88;5124204;27;20042;-67
2022/02/06 11:33:44;;;;;;;11.15;8.05;;;;;;;6.96;42.11;95317.97;5114117;27;20031;-66
2022/02/06 11:36:17;;;;;;;12.82;8.48;;;;;;;6.88;43.00;95302.94;5131587;27;20023;-66
2022/02/06 11:44:57;;;;;;;12.07;8.88;;;;;;;7.15;42.04;95301.25;5112089;27;20138;-67
2022/02/06 11:47:52;;;;;;;13.88;8.80;;;;;;;7.19;41.27;95298.50;5119554;27;20042;-67
2022/02/06 11:50:17;;;;;;;13.68;8.93;;;;;;;7.21;41.31;95306.97;5075747;28;20130;-68
2022/02/06 11:52:54;;;;;;;14.93;9.70;;;;;;;7.18;41.12;95294.25;5121952;27;20036;-67
2022/02/06 11:55:32;;;;;;;13.35;8.80;;;;;;;7.30;41.11;95293.47;5118816;27;20030;-67
2022/02/06 11:58:27;;;;;;;21.38;13.18;;;;;;;7.31;40.53;95290.00;5096900;27;20126;-65
2022/02/06 12:01:05;;;;;;;30.00;18.92;;;;;;;7.35;41.08;95284.53;5111957;27;20026;-65
2022/02/06 12:03:53;;;;;;;26.55;16.38;;;;;;;7.41;40.93;95279.88;5111077;28;20039;-65
2022/02/06 12:06:19;;;;;;;19.05;11.43;;;;;;;7.49;40.71;95283.66;5079796;28;20164;-65
2022/02/06 12:09:00;;;;;;;20.40;10.73;;;;;;;7.59;39.48;95274.41;5100382;27;20060;-65
2022/02/06 12:11:26;;;;;;;15.60;10.20;;;;;;;7.58;38.90;95272.75;5111449;28;20035;-65
2022/02/06 12:14:21;;;;;;;17.95;10.50;;;;;;;7.65;39.72;95267.19;5098244;28;21133;-66
2022/02/06 12:20:05;;;;;;;14.85;9.63;;;;;;;7.65;39.30;95262.00;5122046;27;20050;-68
2022/02/06 12:22:31;;;;;;;16.83;9.25;;;;;;;7.68;38.61;95260.03;5114207;27;20050;-68
2022/02/06 12:25:34;;;;;;;10.63;8.02;;;;;;;7.73;38.31;95249.41;5127832;27;20055;-68
2022/02/06 12:28:21;;;;;;;12.60;7.60;;;;;;;7.71;38.48;95246.09;5105968;28;20031;-66
2022/02/06 12:30:47;;;;;;;12.73;7.65;;;;;;;7.71;38.45;95246.91;5110973;27;20093;-67
2022/02/06 12:33:34;;;;;;;10.98;7.85;;;;;;;7.69;39.56;95247.94;5122689;27;20472;-67
2022/02/06 12:38:46;;;;;;;10.07;7.32;;;;;;;7.89;37.78;95239.72;5109506;28;20070;-67
2022/02/06 12:41:28;;;;;;;13.27;7.72;;;;;;;7.86;38.07;95234.75;5108443;28;20026;-67
2022/02/06 12:43:56;;;;;;;15.18;7.05;;;;;;;7.86;39.54;95241.69;5110199;28;20119;-67
2022/02/06 12:46:23;;;;;;;12.80;8.30;;;;;;;7.90;39.46;95230.22;5111254;28;20115;-67
2022/02/06 12:48:49;;;;;;;12.40;8.20;;;;;;;7.96;40.25;95230.63;5110077;28;20540;-67
2022/02/06 12:51:15;;;;;;;12.85;7.00;;;;;;;8.01;39.03;95227.75;5093189;28;20080;-68
2022/02/06 12:53:40;;;;;;;10.85;6.50;;;;;;;8.05;37.38;95230.03;5105262;28;20039;-67
2022/02/06 12:56:05;;;;;;;15.18;6.97;;;;;;;8.03;37.32;95224.13;5110584;28;20122;-67
2022/02/06 12:58:31;;;;;;;10.32;6.10;;;;;;;8.09;36.59;95222.06;5096408;28;20055;-67
2022/02/06 13:00:57;;;;;;;10.88;7.00;;;;;;;8.11;36.43;95213.28;5105674;27;20024;-68
2022/02/06 13:03:29;;;;;;;14.02;7.93;;;;;;;8.05;36.73;95211.91;5096021;28;20031;-66
2022/02/06 13:06:05;;;;;;;11.25;6.90;;;;;;;7.99;37.03;95204.53;5105146;27;20420;-67
2022/02/06 13:08:34;;;;;;;10.88;7.13;;;;;;;8.02;37.78;95201.78;5120463;27;20029;-68
2022/02/06 13:11:06;;;;;;;45.20;26.60;;;;;;;7.93;39.00;95194.59;5113211;27;20031;-67
2022/02/06 13:24:57;;;;;;;8.18;5.45;;;;;;;7.93;37.35;95176.50;5108506;28;20551;-67
2022/02/06 13:27:44;;;;;;;8.15;5.45;;;;;;;7.89;39.41;95164.72;5130766;27;20622;-68
2022/02/06 13:30:24;;;;;;;7.68;5.20;;;;;;;7.89;38.82;95162.13;5091268;28;20125;-67
2022/02/06 13:37:45;;;;;;;8.52;5.53;;;;;;;7.93;37.72;95158.38;5092970;27;20027;-64
2022/02/06 13:40:16;;;;;;;8.38;4.97;;;;;;;7.93;37.10;95144.63;5099061;28;20427;-65
2022/02/06 13:43:13;;;;;;;9.88;4.10;;;;;;;7.99;35.61;95147.63;5125012;27;20031;-65
2022/02/06 13:45:39;;;;;;;6.88;4.28;;;;;;;8.06;35.05;95137.72;5128080;27;20034;-69
2022/02/06 13:48:07;;;;;;;8.55;4.78;;;;;;;8.09;36.85;95140.09;5102759;27;20116;-67
2022/02/06 13:50:34;;;;;;;8.27;4.20;;;;;;;8.10;36.27;95130.56;5104354;27;20020;-67
2022/02/06 13:53:07;;;;;;;7.97;4.97;;;;;;;8.10;36.57;95125.38;5093580;28;20027;-67
2022/02/06 13:55:32;;;;;;;6.43;4.32;;;;;;;8.02;35.29;95121.56;5105514;27;20084;-66
2022/02/06 13:57:58;;;;;;;8.80;4.85;;;;;;;8.00;37.85;95118.25;5116185;27;20035;-65
2022/02/06 14:00:23;;;;;;;8.10;4.43;;;;;;;7.98;36.45;95119.28;5095463;28;20489;-65
2022/02/06 14:02:56;;;;;;;6.35;4.07;;;;;;;8.01;37.47;95119.06;5119524;27;20016;-64
2022/02/06 14:05:24;;;;;;;6.78;4.57;;;;;;;7.99;36.17;95108.81;5089492;28;20036;-64
2022/02/06 14:08:02;;;;;;;8.10;6.30;;;;;;;8.03;36.51;95101.69;5110067;28;20019;-64
2022/02/06 14:10:39;;;;;;;8.27;5.13;;;;;;;7.99;36.33;95100.22;5099672;27;20058;-64
2022/02/06 14:13:04;;;;;;;8.00;4.72;;;;;;;7.99;36.40;95113.16;5111394;28;20086;-65
2022/02/06 14:15:30;;;;;;;11.50;5.95;;;;;;;7.95;36.05;95114.31;5112370;27;20493;-64
2022/02/06 14:17:57;;;;;;;7.38;4.90;;;;;;;7.99;36.36;95108.00;5101229;27;20252;-65
2022/02/06 14:20:26;;;;;;;7.30;4.30;;;;;;;7.94;36.62;95095.41;5098312;28;20028;-65
2022/02/06 14:22:53;;;;;;;7.57;4.28;;;;;;;7.92;38.05;95099.84;5117070;27;20024;-64
2022/02/06 14:25:32;;;;;;;6.70;4.07;;;;;;;7.98;36.99;95109.75;5111680;28;20048;-65